Accueil
METAR-TAF:

METAR-TAF

Aéroports :

Aéroport international d'Exeter

Exeter, Angleterre

latitude: 50-44N, longitude: 003-25W, altitude: 30 m

Observation

Le bulletin a été fait il y a 2 heures et 42 minutes, à 22:50 UTC
Vent 7 kt de ouest/nord-ouest, variant entre ouest et nord-ouest
Température 8°C
Humidité 81%
Pression 1025 hPa
Visibilité 10 km ou plus
Quelques nuages à une hauteur de 3000 ft

METAR: EGTE 092250Z 29007KT 260V320 9999 FEW030 08/05 Q1025

Heure: 01:32 (01:32 UTC)

Prévision

Le bulletin a été fait il y a 2 heures et 31 minutes, à 23:01 UTC
Prévision valable du 10 à 00 UTC au 10 à 02 UTC
Vent 9 kt de ouest/nord-ouest
Visibilité 10 km ou plus
Quelques nuages à une hauteur de 2800 ft

TAF: EGTE 092301Z 1000/1002 29009KT 9999 FEW028

Observations et prévisions météorologiques de plus de 4000 aéroports (messages METAR et TAF).

Les stations disponibles sont représentées par des disques jaunes et rouges sur la carte.

Passer la souris dessus pour voir le nom de la station.

Cliquer dessus pour voir les observations et prévisions météorologiques.

Pour changer de carte: cliquez sur les boutons verts avec une croix noire pour zoomer, sur le bouton vert avec un tiret pour effectuer un zoom arrière, ou sur les flèches vertes pour les cartes adjacentes.


METAR-TAF: